Time;durP1;ratioP1;P1;durP2;ratioP2;P2;SDS_P1;SDS_P2;PMS_P1;PMS_P2;Temp;Humidity;BMP_temperature;BMP_pressure;BME280_temperature;BME280_humidity;BME280_pressure;Samples;Min_cycle;Max_cycle;Signal;HPM_P1;HPM_P2
2020/12/01 00:02:24;;;;;;;13.75;9.45;;;;;;;;;;5032875;28;20174;-79
2020/12/01 00:04:50;;;;;;;9.95;8.05;;;;;;;;;;5032628;28;20579;-78
2020/12/01 00:07:16;;;;;;;12.35;8.00;;;;;;;;;;5032885;28;20682;-80
2020/12/01 00:09:43;;;;;;;11.95;8.43;;;;;;;;;;5032766;28;20571;-79
2020/12/01 00:12:09;;;;;;;15.48;9.10;;;;;;;;;;5032973;28;20174;-78
2020/12/01 00:14:35;;;;;;;12.25;8.00;;;;;;;;;;5032711;28;20246;-78
2020/12/01 00:17:01;;;;;;;12.82;8.80;;;;;;;;;;5032660;28;20238;-78
2020/12/01 00:19:27;;;;;;;10.98;7.03;;;;;;;;;;5032688;28;20194;-79
2020/12/01 00:21:53;;;;;;;11.60;9.07;;;;;;;;;;5032735;28;20170;-79
2020/12/01 00:24:19;;;;;;;14.45;9.77;;;;;;;;;;5034000;28;20185;-80
2020/12/01 00:26:45;;;;;;;12.38;9.15;;;;;;;;;;5036150;28;20174;-80
2020/12/01 00:29:11;;;;;;;10.07;7.72;;;;;;;;;;5036424;28;20205;-78
2020/12/01 00:31:41;;;;;;;10.30;7.70;;;;;;;;;;5036312;28;20166;-79
2020/12/01 00:34:10;;;;;;;11.73;8.07;;;;;;;;;;5036437;28;20530;-80
2020/12/01 00:36:37;;;;;;;8.38;6.40;;;;;;;;;;5035687;28;20171;-80
2020/12/01 00:39:04;;;;;;;12.93;8.70;;;;;;;;;;5036051;28;20685;-79
2020/12/01 00:41:30;;;;;;;11.23;6.70;;;;;;;;;;5036253;28;20265;-80
2020/12/01 00:43:56;;;;;;;12.35;7.72;;;;;;;;;;5036102;28;20601;-79
2020/12/01 00:46:22;;;;;;;10.93;7.85;;;;;;;;;;5035794;28;20530;-79
2020/12/01 00:48:48;;;;;;;11.93;8.73;;;;;;;;;;5035779;28;20221;-79
2020/12/01 00:51:14;;;;;;;16.47;8.97;;;;;;;;;;5036088;28;20174;-79
2020/12/01 00:53:40;;;;;;;13.63;8.30;;;;;;;;;;5035975;28;20408;-79
2020/12/01 00:56:06;;;;;;;13.23;8.50;;;;;;;;;;5035636;28;20186;-80
2020/12/01 00:58:32;;;;;;;11.48;8.98;;;;;;;;;;5034414;28;20758;-79
2020/12/01 01:00:58;;;;;;;12.63;8.75;;;5.20;99.90;;;;;;5035947;28;20265;-78
2020/12/01 01:03:24;;;;;;;12.57;9.40;;;5.00;99.90;;;;;;5034756;28;20231;-79
2020/12/01 01:05:49;;;;;;;14.50;9.13;;;5.00;99.90;;;;;;5035675;28;20809;-79
2020/12/01 01:08:15;;;;;;;10.80;8.27;;;5.00;99.90;;;;;;5035818;28;20174;-78
2020/12/01 01:10:41;;;;;;;14.93;9.87;;;5.00;99.90;;;;;;5035721;28;20197;-79
2020/12/01 01:13:06;;;;;;;13.43;8.93;;;4.90;99.90;;;;;;5035537;28;20405;-77
2020/12/01 01:15:34;;;;;;;13.27;9.10;;;5.00;99.90;;;;;;5035310;28;20178;-78
2020/12/01 01:18:01;;;;;;;13.38;10.05;;;5.00;99.90;;;;;;5035445;28;20256;-77
2020/12/01 01:20:28;;;;;;;11.82;9.02;;;4.90;99.90;;;;;;5035382;28;20204;-79
2020/12/01 01:22:54;;;;;;;12.63;9.80;;;5.00;99.90;;;;;;5035445;28;20174;-77
2020/12/01 01:25:21;;;;;;;12.95;10.15;;;4.90;99.90;;;;;;5034998;28;20213;-76
2020/12/01 01:27:47;;;;;;;16.25;10.52;;;5.00;99.90;;;;;;5035440;28;20225;-80
2020/12/01 01:30:15;;;;;;;13.38;9.35;;;4.90;99.90;;;;;;5035394;28;20237;-77
2020/12/01 01:32:40;;;;;;;15.85;10.77;;;4.90;99.90;;;;;;5035225;28;20181;-79
2020/12/01 01:35:06;;;;;;;16.17;10.63;;;5.00;99.90;;;;;;5034603;28;20174;-79
2020/12/01 01:37:32;;;;;;;16.70;11.10;;;4.90;99.90;;;;;;5034870;28;20217;-78
2020/12/01 01:39:58;;;;;;;18.80;11.47;;;4.90;99.90;;;;;;5035118;28;20213;-79
2020/12/01 01:42:23;;;;;;;24.55;13.65;;;5.00;99.90;;;;;;5033786;28;20264;-78
2020/12/01 01:44:49;;;;;;;16.87;12.10;;;5.00;99.90;;;;;;5034639;28;20220;-78
2020/12/01 01:47:24;;;;;;;16.53;12.70;;;5.00;99.90;;;;;;5034780;28;20182;-78
2020/12/01 01:50:09;;;;;;;16.75;11.80;;;5.00;99.90;;;;;;5034916;28;20197;-78
2020/12/01 01:52:41;;;;;;;19.63;12.45;;;5.00;99.90;;;;;;5035175;28;20185;-79
2020/12/01 01:55:09;;;;;;;20.42;12.60;;;5.00;99.90;;;;;;5034682;28;20220;-79
2020/12/01 01:57:35;;;;;;;22.83;15.00;;;5.00;99.90;;;;;;5033568;28;20251;-77
2020/12/01 02:00:09;;;;;;;20.00;13.43;;;5.00;99.90;;;;;;5034865;28;20194;-78
2020/12/01 02:02:35;;;;;;;22.70;15.00;;;5.00;99.90;;;;;;5034818;28;20688;-78
2020/12/01 02:05:00;;;;;;;22.83;14.20;;;5.00;99.90;;;;;;5034381;28;20316;-78
2020/12/01 02:07:26;;;;;;;23.90;15.53;;;5.10;99.90;;;;;;5034498;28;20261;-79
2020/12/01 02:09:56;;;;;;;26.03;14.33;;;5.10;99.90;;;;;;5034450;28;20440;-78
2020/12/01 02:12:22;;;;;;;23.60;15.15;;;5.10;99.90;;;;;;5034479;28;20421;-78
2020/12/01 02:14:55;;;;;;;23.75;15.25;;;5.10;99.90;;;;;;5034205;28;20170;-79
2020/12/01 02:17:24;;;;;;;24.13;17.00;;;5.10;99.90;;;;;;5034442;28;20207;-79
2020/12/01 02:19:53;;;;;;;24.25;15.73;;;5.10;99.90;;;;;;5032975;28;20538;-78
2020/12/01 02:22:22;;;;;;;23.13;16.17;;;5.10;99.90;;;;;;5034467;28;20256;-78
2020/12/01 02:24:50;;;;;;;26.27;16.83;;;5.20;99.90;;;;;;5034113;28;20531;-78
2020/12/01 02:27:18;;;;;;;29.00;17.13;;;5.10;99.90;;;;;;5034233;28;20218;-78
2020/12/01 02:29:46;;;;;;;24.05;16.90;;;5.20;99.90;;;;;;5034017;28;20208;-79
2020/12/01 02:32:13;;;;;;;25.33;16.67;;;5.10;99.90;;;;;;5034228;28;20534;-79
2020/12/01 02:34:43;;;;;;;22.98;16.13;;;5.10;99.90;;;;;;5033769;28;20182;-79
2020/12/01 02:37:10;;;;;;;21.52;15.32;;;5.20;99.90;;;;;;5033828;28;20700;-76
2020/12/01 02:39:36;;;;;;;29.55;17.52;;;5.20;99.90;;;;;;5033632;28;20272;-77
2020/12/01 02:42:06;;;;;;;26.83;17.33;;;5.10;99.90;;;;;;5033819;28;20614;-79
2020/12/01 02:44:32;;;;;;;31.05;18.25;;;5.10;99.90;;;;;;5033489;28;20272;-78
2020/12/01 02:47:02;;;;;;;26.40;17.47;;;5.10;99.90;;;;;;5033364;28;20252;-78
2020/12/01 02:49:27;;;;;;;25.63;16.65;;;5.10;99.90;;;;;;5032497;28;20201;-77
2020/12/01 02:51:53;;;;;;;26.83;16.97;;;5.00;99.90;;;;;;5033646;28;20178;-79
2020/12/01 02:54:19;;;;;;;23.93;15.53;;;5.10;99.90;;;;;;5032409;28;20657;-77
2020/12/01 02:56:45;;;;;;;24.43;15.20;;;5.10;99.90;;;;;;5033457;28;20173;-77
2020/12/01 02:59:12;;;;;;;25.58;17.10;;;5.10;99.90;;;;;;5033545;28;20608;-80
2020/12/01 03:01:38;;;;;;;25.98;17.08;;;5.00;99.90;;;;;;5033537;28;20539;-78
2020/12/01 03:04:03;;;;;;;29.33;17.70;;;5.00;99.90;;;;;;5033538;28;20170;-80
2020/12/01 03:06:29;;;;;;;24.00;17.70;;;5.00;99.90;;;;;;5033398;28;20185;-80
2020/12/01 03:08:55;;;;;;;27.80;17.43;;;5.00;99.90;;;;;;5033514;28;20194;-77
2020/12/01 03:11:20;;;;;;;30.50;18.87;;;5.00;99.90;;;;;;5032329;28;20186;-78
2020/12/01 03:13:46;;;;;;;27.93;18.27;;;5.00;99.90;;;;;;5033563;28;20182;-77
2020/12/01 03:16:12;;;;;;;25.30;16.70;;;5.00;99.90;;;;;;5032976;28;20417;-79
2020/12/01 03:18:41;;;;;;;27.25;17.70;;;5.00;99.90;;;;;;5033363;28;20209;-77
2020/12/01 03:21:07;;;;;;;26.88;18.25;;;5.00;99.90;;;;;;5033301;28;20173;-77
2020/12/01 03:23:33;;;;;;;32.97;19.45;;;5.00;99.90;;;;;;5033254;28;20190;-78
2020/12/01 03:26:00;;;;;;;30.00;19.65;;;5.00;99.90;;;;;;5032841;28;20236;-77
2020/12/01 03:28:25;;;;;;;29.75;20.60;;;5.10;99.90;;;;;;5033126;28;20264;-79
2020/12/01 03:30:51;;;;;;;22.90;16.83;;;5.00;99.90;;;;;;5033463;28;20710;-79
2020/12/01 03:33:17;;;;;;;29.13;18.20;;;5.10;99.90;;;;;;5033351;28;20288;-78
2020/12/01 03:35:43;;;;;;;26.42;15.85;;;5.10;99.90;;;;;;5032783;28;20191;-78
2020/12/01 03:38:09;;;;;;;25.47;16.17;;;5.10;99.90;;;;;;5032710;28;20210;-79
2020/12/01 03:40:34;;;;;;;29.17;18.40;;;5.10;99.90;;;;;;5033025;28;20243;-79
2020/12/01 03:43:00;;;;;;;27.90;19.70;;;5.10;99.90;;;;;;5033044;28;20638;-78
2020/12/01 03:45:25;;;;;;;25.03;18.20;;;5.10;99.90;;;;;;5032752;28;20174;-78
2020/12/01 03:47:56;;;;;;;28.13;19.80;;;5.10;99.90;;;;;;5032950;28;20185;-79
2020/12/01 03:50:26;;;;;;;30.70;18.80;;;5.20;99.90;;;;;;5032807;28;20186;-80
2020/12/01 03:52:52;;;;;;;27.27;18.35;;;5.20;99.90;;;;;;5033038;28;20244;-80
2020/12/01 03:55:19;;;;;;;26.90;17.48;;;5.30;99.90;;;;;;5032811;28;20173;-78
2020/12/01 03:57:45;;;;;;;23.83;16.48;;;5.30;99.90;;;;;;5033642;28;20262;-77
2020/12/01 04:00:20;;;;;;;25.10;16.20;;;5.30;99.90;;;;;;5037046;28;20618;-79
2020/12/01 04:02:46;;;;;;;24.60;16.20;;;5.30;99.90;;;;;;5037161;28;20414;-79
2020/12/01 04:05:12;;;;;;;24.80;15.73;;;5.30;99.90;;;;;;5036717;28;20178;-79
2020/12/01 04:07:38;;;;;;;21.33;13.73;;;5.40;99.90;;;;;;5036988;28;20408;-79
2020/12/01 04:10:05;;;;;;;24.85;15.77;;;5.40;99.90;;;;;;5036934;28;20278;-77
2020/12/01 04:12:31;;;;;;;24.85;13.65;;;5.40;99.90;;;;;;5036644;28;20179;-78
2020/12/01 04:14:57;;;;;;;19.90;12.95;;;5.40;99.90;;;;;;5036557;28;20592;-77
2020/12/01 04:17:23;;;;;;;16.93;12.27;;;5.40;99.90;;;;;;5035286;28;20194;-77
2020/12/01 04:19:49;;;;;;;20.40;12.18;;;5.50;99.90;;;;;;5036522;28;20462;-77
2020/12/01 04:22:16;;;;;;;13.65;9.70;;;5.50;99.90;;;;;;5036677;28;20170;-78
2020/12/01 04:24:41;;;;;;;16.90;10.27;;;5.50;99.90;;;;;;5036185;28;20174;-77
2020/12/01 04:27:08;;;;;;;18.73;11.00;;;5.50;99.90;;;;;;5036551;28;20191;-79
2020/12/01 04:29:34;;;;;;;16.13;9.40;;;5.50;99.90;;;;;;5036403;28;20468;-80
2020/12/01 04:32:00;;;;;;;16.60;9.37;;;5.50;99.90;;;;;;5036405;28;20525;-78
2020/12/01 04:34:26;;;;;;;13.37;8.57;;;5.50;99.90;;;;;;5035858;28;20185;-79
2020/12/01 04:36:51;;;;;;;14.00;9.23;;;5.60;99.90;;;;;;5036161;28;20178;-77
2020/12/01 04:39:17;;;;;;;13.17;7.87;;;5.50;99.90;;;;;;5036294;28;20722;-78
2020/12/01 04:41:43;;;;;;;16.90;8.50;;;5.50;99.90;;;;;;5036173;28;20193;-76
2020/12/01 04:44:31;;;;;;;21.80;9.00;;;5.50;99.90;;;;;;5036079;28;20171;-77
2020/12/01 04:47:01;;;;;;;16.05;8.52;;;5.50;99.90;;;;;;5034792;28;20635;-78
2020/12/01 04:49:41;;;;;;;17.38;9.43;;;5.50;99.90;;;;;;5036024;28;20205;-79
2020/12/01 04:52:34;;;;;;;14.25;8.93;;;5.60;99.90;;;;;;5036286;28;20176;-76
2020/12/01 04:55:15;;;;;;;15.43;9.50;;;5.50;99.90;;;;;;5035564;28;20198;-79
2020/12/01 04:58:01;;;;;;;14.93;9.50;;;5.50;99.90;;;;;;5035995;28;20209;-76
2020/12/01 05:00:38;;;;;;;14.38;9.48;;;5.50;99.90;;;;;;5035812;28;20187;-77
2020/12/01 05:03:27;;;;;;;17.63;9.90;;;5.50;99.90;;;;;;5035837;28;20219;-78
2020/12/01 05:06:17;;;;;;;14.27;9.10;;;5.50;99.90;;;;;;5035218;28;20186;-76
2020/12/01 05:09:11;;;;;;;19.17;11.23;;;5.60;99.90;;;;;;5035632;28;20257;-76
2020/12/01 05:11:45;;;;;;;16.48;10.50;;;5.50;99.90;;;;;;5034285;28;20174;-77
2020/12/01 05:14:30;;;;;;;13.25;9.68;;;5.50;99.90;;;;;;5035787;28;20197;-77
2020/12/01 05:17:34;;;;;;;19.98;10.88;;;5.50;99.90;;;;;;5035443;28;20604;-77
2020/12/01 05:20:00;;;;;;;17.20;9.23;;;5.60;99.90;;;;;;5035257;28;20585;-77
2020/12/01 05:22:25;;;;;;;14.77;9.47;;;5.70;99.90;;;;;;5035574;28;20221;-77
2020/12/01 05:24:53;;;;;;;15.30;9.27;;;5.60;99.90;;;;;;5035098;28;20174;-79
2020/12/01 05:27:27;;;;;;;21.33;9.63;;;5.70;99.90;;;;;;5035326;28;20186;-77
2020/12/01 05:30:06;;;;;;;18.27;8.35;;;5.70;99.90;;;;;;5035294;28;20561;-77
2020/12/01 05:32:40;;;;;;;17.20;10.15;;;5.70;99.90;;;;;;5035321;28;20184;-77
2020/12/01 05:35:14;;;;;;;19.20;10.35;;;5.70;99.90;;;;;;5033556;28;20269;-77
2020/12/01 05:38:11;;;;;;;16.73;10.40;;;5.80;99.90;;;;;;5033656;28;20623;-78
2020/12/01 05:40:37;;;;;;;22.85;10.88;;;5.70;99.90;;;;;;5034918;28;20210;-79
2020/12/01 05:43:03;;;;;;;19.87;10.33;;;5.70;99.90;;;;;;5034896;28;20178;-77
2020/12/01 05:45:35;;;;;;;16.67;10.57;;;5.80;99.90;;;;;;5034643;28;20177;-77
2020/12/01 05:48:10;;;;;;;16.73;9.88;;;5.80;99.90;;;;;;5034941;28;20258;-77
2020/12/01 05:50:47;;;;;;;26.08;12.57;;;5.90;99.90;;;;;;5034893;28;20221;-77
2020/12/01 05:53:13;;;;;;;28.52;14.43;;;5.90;99.90;;;;;;5034721;28;20630;-78
2020/12/01 05:55:38;;;;;;;21.20;13.00;;;5.90;99.90;;;;;;5034505;28;20241;-77
2020/12/01 05:58:14;;;;;;;26.20;14.57;;;5.90;99.90;;;;;;5034772;28;20207;-78
2020/12/01 06:00:42;;;;;;;27.30;13.32;;;5.90;99.90;;;;;;5034929;28;20220;-76
2020/12/01 06:03:21;;;;;;;30.80;12.68;;;5.90;99.90;;;;;;5034733;28;20603;-79
2020/12/01 06:05:50;;;;;;;27.75;14.90;;;5.90;99.90;;;;;;5034583;28;20170;-78
2020/12/01 06:08:46;;;;;;;28.92;14.02;;;5.90;99.90;;;;;;5034729;28;20232;-77
2020/12/01 06:11:23;;;;;;;31.33;14.52;;;5.90;99.90;;;;;;5034681;28;20536;-77
2020/12/01 06:13:49;;;;;;;24.60;14.23;;;5.90;99.90;;;;;;5034638;28;20186;-78
2020/12/01 06:16:27;;;;;;;28.30;13.77;;;5.90;99.90;;;;;;5032904;28;20182;-77
2020/12/01 06:19:20;;;;;;;20.88;12.65;;;5.90;99.90;;;;;;5034401;28;20213;-77
2020/12/01 06:22:19;;;;;;;29.23;11.85;;;5.90;99.90;;;;;;5033351;28;20205;-77
2020/12/01 06:25:22;;;;;;;25.02;12.70;;;5.90;99.90;;;;;;5033908;28;20202;-77
2020/12/01 06:27:51;;;;;;;25.95;12.75;;;5.90;99.90;;;;;;5034159;28;20590;-77
2020/12/01 06:30:50;;;;;;;21.83;10.50;;;5.90;99.90;;;;;;5034395;28;20233;-78
2020/12/01 06:33:49;;;;;;;30.13;11.63;;;5.90;99.90;;;;;;5034093;28;20170;-77
2020/12/01 06:36:35;;;;;;;23.48;11.85;;;5.90;99.90;;;;;;5033673;28;20181;-77
2020/12/01 06:39:04;;;;;;;27.02;12.35;;;5.90;99.90;;;;;;5033849;28;20216;-77
2020/12/01 06:41:37;;;;;;;27.05;11.02;;;5.90;99.90;;;;;;5033761;28;20173;-78
2020/12/01 06:44:09;;;;;;;21.02;10.05;;;5.90;99.90;;;;;;5033927;28;20170;-77
2020/12/01 06:46:52;;;;;;;27.27;10.68;;;5.90;99.90;;;;;;5033577;28;20321;-78
2020/12/01 06:49:26;;;;;;;47.22;10.75;;;5.90;99.90;;;;;;5033678;28;20299;-78
2020/12/01 06:51:57;;;;;;;32.88;10.27;;;5.90;99.90;;;;;;5033690;28;20210;-77
2020/12/01 06:54:22;;;;;;;24.30;9.73;;;5.90;99.90;;;;;;5033464;28;20177;-79
2020/12/01 06:57:03;;;;;;;27.77;9.53;;;5.90;99.90;;;;;;5033746;28;20517;-77
2020/12/01 06:59:29;;;;;;;29.85;11.13;;;5.90;99.90;;;;;;5033598;28;20594;-77
2020/12/01 07:02:23;;;;;;;23.23;10.00;;;5.90;99.90;;;;;;5033569;28;20182;-76
2020/12/01 07:04:49;;;;;;;19.13;8.95;;;5.90;99.90;;;;;;5033416;28;20249;-78
2020/12/01 07:07:32;;;;;;;19.15;8.88;;;5.90;99.90;;;;;;5033483;28;20316;-78
2020/12/01 07:10:19;;;;;;;32.17;9.73;;;5.90;99.90;;;;;;5033432;28;20200;-76
2020/12/01 07:13:11;;;;;;;21.27;9.70;;;5.90;99.90;;;;;;5033393;28;20169;-77
2020/12/01 07:15:46;;;;;;;20.20;8.52;;;5.90;99.90;;;;;;5033093;28;20253;-78
2020/12/01 07:18:20;;;;;;;23.30;9.60;;;5.90;99.90;;;;;;5033575;28;20186;-78
2020/12/01 07:21:04;;;;;;;33.85;10.50;;;6.00;99.90;;;;;;5033286;28;20597;-77
2020/12/01 07:23:36;;;;;;;30.00;10.02;;;6.00;99.90;;;;;;5033303;28;20173;-78
2020/12/01 07:26:27;;;;;;;28.52;9.65;;;6.00;99.90;;;;;;5038928;28;20178;-78
2020/12/01 07:29:07;;;;;;;19.27;9.07;;;5.90;99.90;;;;;;5044613;28;20204;-78
2020/12/01 07:31:36;;;;;;;27.42;10.60;;;6.00;99.90;;;;;;5053216;28;20190;-77
2020/12/01 07:34:04;;;;;;;26.20;10.93;;;5.90;99.90;;;;;;5052777;28;20189;-77
2020/12/01 07:36:41;;;;;;;22.52;10.13;;;6.00;99.90;;;;;;5052563;28;20208;-80
2020/12/01 07:39:25;;;;;;;20.27;10.63;;;5.90;99.90;;;;;;5053051;28;20236;-78
2020/12/01 07:41:54;;;;;;;30.45;10.98;;;6.00;99.90;;;;;;5052634;28;20554;-79
2020/12/01 07:44:24;;;;;;;35.60;13.77;;;6.00;99.90;;;;;;5051542;28;20615;-78
2020/12/01 07:47:13;;;;;;;32.78;13.13;;;6.00;99.90;;;;;;5053004;28;20670;-78
2020/12/01 07:49:39;;;;;;;30.77;12.80;;;6.00;99.90;;;;;;5053203;28;20237;-77
2020/12/01 07:52:21;;;;;;;35.42;14.05;;;6.00;99.90;;;;;;5052712;28;20161;-78
2020/12/01 07:54:59;;;;;;;33.05;14.60;;;6.00;99.90;;;;;;5048368;28;20178;-79
2020/12/01 07:57:25;;;;;;;35.35;14.13;;;6.10;99.90;;;;;;5033055;28;20203;-77
2020/12/01 07:59:51;;;;;;;38.67;15.70;;;6.00;99.90;;;;;;5032834;28;20268;-78
2020/12/01 08:02:19;;;;;;;38.42;14.13;;;6.00;99.90;;;;;;5032848;28;20581;-79
2020/12/01 08:04:45;;;;;;;30.27;14.05;;;6.00;99.90;;;;;;5032598;28;20224;-76
2020/12/01 08:07:16;;;;;;;30.73;14.53;;;6.00;99.90;;;;;;5032916;28;20178;-79
2020/12/01 08:09:42;;;;;;;39.15;14.80;;;6.00;99.90;;;;;;5032997;28;20222;-78
2020/12/01 08:12:12;;;;;;;29.90;14.85;;;6.00;99.90;;;;;;5032948;28;20164;-77
2020/12/01 08:14:38;;;;;;;27.63;14.13;;;6.00;99.90;;;;;;5032626;28;20195;-77
2020/12/01 08:17:19;;;;;;;35.23;15.10;;;6.00;99.90;;;;;;5032637;28;20174;-77
2020/12/01 08:19:46;;;;;;;36.75;15.30;;;6.00;99.90;;;;;;5032615;28;20511;-76
2020/12/01 08:22:17;;;;;;;37.50;14.77;;;6.00;99.90;;;;;;5032695;28;20174;-78
2020/12/01 08:24:45;;;;;;;36.63;16.02;;;6.00;99.90;;;;;;5032242;28;20177;-77
2020/12/01 08:27:19;;;;;;;30.13;14.40;;;6.00;99.90;;;;;;5032705;28;20174;-77
2020/12/01 08:29:47;;;;;;;44.70;13.43;;;6.00;99.90;;;;;;5032591;28;20190;-76
2020/12/01 08:32:37;;;;;;;29.70;14.40;;;6.00;99.90;;;;;;5032648;28;20276;-78
2020/12/01 08:35:13;;;;;;;29.60;16.05;;;6.00;99.90;;;;;;5032465;28;20171;-76
2020/12/01 08:38:03;;;;;;;36.42;16.00;;;6.10;99.90;;;;;;5032426;28;20208;-78
2020/12/01 08:40:53;;;;;;;40.25;17.55;;;6.00;99.90;;;;;;5032388;28;20277;-79
2020/12/01 08:43:29;;;;;;;39.78;15.88;;;6.00;99.90;;;;;;5032488;28;20168;-77
2020/12/01 08:46:03;;;;;;;37.30;16.75;;;6.00;99.90;;;;;;5034536;28;20600;-77
2020/12/01 08:48:38;;;;;;;38.72;18.05;;;6.10;99.90;;;;;;5035771;28;20170;-77
2020/12/01 08:51:35;;;;;;;40.78;17.08;;;6.10;99.90;;;;;;5034768;28;20640;-77
2020/12/01 08:54:03;;;;;;;66.65;38.00;;;6.10;99.90;;;;;;5035936;28;20183;-79
2020/12/01 08:56:54;;;;;;;50.45;28.08;;;6.10;99.90;;;;;;5035452;28;20183;-76
2020/12/01 08:59:29;;;;;;;41.58;20.73;;;6.20;99.90;;;;;;5030656;28;20726;-77
2020/12/01 09:02:01;;;;;;;24.75;15.73;;;6.30;99.90;;;;;;5035777;28;20265;-76
2020/12/01 09:04:29;;;;;;;36.72;17.20;;;6.20;99.90;;;;;;5034050;28;20174;-78
2020/12/01 09:07:21;;;;;;;43.75;16.67;;;6.30;99.90;;;;;;5035675;28;20227;-76
2020/12/01 09:09:50;;;;;;;47.35;17.48;;;6.20;99.90;;;;;;5035699;28;20229;-77
2020/12/01 09:12:27;;;;;;;25.00;15.70;;;6.20;99.90;;;;;;5035718;28;20201;-77
2020/12/01 09:20:39;;;;;;;31.65;15.43;;;6.30;99.90;;;;;;5035988;28;20197;-76
2020/12/01 09:23:37;;;;;;;29.85;13.88;;;6.40;99.90;;;;;;5035801;28;20185;-76
2020/12/01 09:26:20;;;;;;;28.23;16.85;;;6.40;99.90;;;;;;5034000;28;20186;-77
2020/12/01 09:28:49;;;;;;;34.13;15.27;;;6.40;99.90;;;;;;5035300;28;20214;-78
2020/12/01 09:31:15;;;;;;;30.17;15.60;;;6.40;99.90;;;;;;5035432;28;20174;-77
2020/12/01 09:33:41;;;;;;;32.45;13.82;;;6.40;99.90;;;;;;5035406;28;20648;-78
2020/12/01 09:36:07;;;;;;;29.88;16.10;;;6.50;99.90;;;;;;5034840;28;20701;-78
2020/12/01 09:38:32;;;;;;;29.57;15.73;;;6.50;99.90;;;;;;5034877;28;20210;-78
2020/12/01 09:40:58;;;;;;;29.13;14.77;;;6.50;99.90;;;;;;5035040;28;20224;-75
2020/12/01 09:43:32;;;;;;;25.83;13.55;;;6.60;99.90;;;;;;5035084;28;20575;-78
2020/12/01 09:46:03;;;;;;;28.10;14.20;;;6.60;99.90;;;;;;5034818;28;20163;-78
2020/12/01 09:48:33;;;;;;;27.27;13.82;;;6.60;99.90;;;;;;5034953;28;20193;-76
2020/12/01 09:51:00;;;;;;;35.83;14.30;;;6.70;99.90;;;;;;5034792;28;20628;-78
2020/12/01 09:56:23;;;;;;;28.03;14.60;;;6.70;99.90;;;;;;5034537;28;20641;-76
2020/12/01 10:05:01;;;;;;;24.52;14.15;;;6.80;99.90;;;;;;5034834;28;20265;-78
2020/12/01 10:09:49;;;;;;;22.10;14.45;;;6.90;99.90;;;;;;5034965;28;20684;-78
2020/12/01 10:12:19;;;;;;;33.22;15.55;;;6.90;99.90;;;;;;5034591;28;20262;-78
2020/12/01 10:17:55;;;;;;;26.70;13.23;;;7.00;99.90;;;;;;5034499;28;20220;-78
2020/12/01 10:20:51;;;;;;;27.75;14.45;;;7.10;99.90;;;;;;5034441;28;20194;-77
2020/12/01 10:36:40;;;;;;;22.70;14.25;;;7.00;99.90;;;;;;5034113;28;20186;-78
2020/12/01 10:39:07;;;;;;;39.23;16.40;;;7.00;99.90;;;;;;5033868;28;20206;-77
2020/12/01 10:41:33;;;;;;;29.48;16.45;;;7.00;99.90;;;;;;5033988;28;20433;-76
2020/12/01 10:44:01;;;;;;;38.80;16.35;;;7.00;99.90;;;;;;5032672;28;20639;-76
2020/12/01 10:46:28;;;;;;;27.70;15.68;;;7.10;99.90;;;;;;5033626;28;20174;-77
2020/12/01 10:48:53;;;;;;;27.15;16.60;;;7.10;99.90;;;;;;5033618;28;20202;-77
2020/12/01 10:51:19;;;;;;;33.33;17.10;;;7.10;99.90;;;;;;5033723;28;20188;-79
2020/12/01 10:53:45;;;;;;;31.30;15.20;;;7.00;99.90;;;;;;5033715;28;20216;-79
2020/12/01 10:56:11;;;;;;;36.53;18.83;;;7.00;99.90;;;;;;5033285;28;20192;-77
2020/12/01 10:58:37;;;;;;;34.38;14.82;;;7.10;99.90;;;;;;5033461;28;20539;-79
2020/12/01 11:01:03;;;;;;;34.83;16.10;;;7.10;99.90;;;;;;5033578;28;20249;-77
2020/12/01 11:03:29;;;;;;;24.35;15.10;;;7.10;99.90;;;;;;5033512;28;20461;-77
2020/12/01 11:05:54;;;;;;;25.20;14.00;;;7.10;99.90;;;;;;5033496;28;20221;-79
2020/12/01 11:08:20;;;;;;;27.60;15.53;;;7.10;99.90;;;;;;5033160;28;20624;-78
2020/12/01 11:10:46;;;;;;;23.67;15.57;;;7.10;99.90;;;;;;5032234;28;20670;-77
2020/12/01 11:13:12;;;;;;;20.80;13.30;;;7.20;99.90;;;;;;5033543;28;20766;-78
2020/12/01 11:15:37;;;;;;;24.60;13.30;;;7.20;99.90;;;;;;5031537;28;20653;-78
2020/12/01 11:18:06;;;;;;;21.90;13.03;;;7.20;99.90;;;;;;5033646;28;20194;-77
2020/12/01 11:20:32;;;;;;;20.83;13.10;;;7.20;99.90;;;;;;5031962;28;20197;-79
2020/12/01 11:22:58;;;;;;;21.85;12.88;;;7.30;99.90;;;;;;5033286;28;20178;-77
2020/12/01 11:25:24;;;;;;;16.50;10.70;;;7.30;99.90;;;;;;5033205;28;20167;-77
2020/12/01 11:27:49;;;;;;;30.33;11.83;;;7.20;99.90;;;;;;5033480;28;20213;-77
2020/12/01 11:30:17;;;;;;;17.00;9.97;;;7.20;99.90;;;;;;5033519;28;20194;-79
2020/12/01 11:32:42;;;;;;;17.38;9.23;;;7.20;99.90;;;;;;5031944;28;20185;-79
2020/12/01 11:35:08;;;;;;;17.47;10.33;;;7.20;99.90;;;;;;5033116;28;20182;-76
2020/12/01 11:37:34;;;;;;;16.90;8.73;;;7.20;99.90;;;;;;5033046;28;20220;-78
2020/12/01 11:39:59;;;;;;;16.63;9.17;;;7.20;99.90;;;;;;5033089;28;20201;-77
2020/12/01 11:42:25;;;;;;;12.40;8.33;;;7.10;99.90;;;;;;5031910;28;20208;-78
2020/12/01 11:44:51;;;;;;;12.00;8.40;;;7.20;99.90;;;;;;5032824;28;20248;-77
2020/12/01 11:47:17;;;;;;;11.27;8.10;;;7.20;99.90;;;;;;5031866;28;20281;-78
2020/12/01 11:49:42;;;;;;;12.60;8.03;;;7.20;99.90;;;;;;5032866;28;20284;-77
2020/12/01 11:52:08;;;;;;;11.33;8.03;;;7.20;99.90;;;;;;5032888;28;20181;-79
2020/12/01 11:54:34;;;;;;;14.77;8.90;;;7.20;99.90;;;;;;5032570;28;20259;-78
2020/12/01 11:56:59;;;;;;;13.30;8.30;;;7.30;99.90;;;;;;5033011;28;20581;-79
2020/12/01 11:59:25;;;;;;;13.77;8.07;;;7.30;99.90;;;;;;5032739;28;20213;-79
2020/12/01 12:01:51;;;;;;;14.77;8.50;;;7.30;99.90;;;;;;5032776;28;20169;-77
2020/12/01 12:04:16;;;;;;;15.43;8.67;;;7.30;99.90;;;;;;5032664;28;20170;-78
2020/12/01 12:06:42;;;;;;;15.67;9.00;;;7.30;99.90;;;;;;5032658;28;20178;-79
2020/12/01 12:09:10;;;;;;;17.53;9.40;;;7.30;99.90;;;;;;5032812;28;20202;-79
2020/12/01 12:11:36;;;;;;;18.63;10.88;;;7.30;99.90;;;;;;5032856;28;20205;-77
2020/12/01 12:14:02;;;;;;;16.70;10.83;;;7.40;99.90;;;;;;5032717;28;20178;-78
2020/12/01 12:16:28;;;;;;;15.25;9.38;;;7.40;99.90;;;;;;5032388;28;21010;-76
2020/12/01 12:18:54;;;;;;;15.73;9.67;;;7.40;99.90;;;;;;5031503;28;20219;-79
2020/12/01 12:21:20;;;;;;;14.30;10.20;;;7.50;99.90;;;;;;5035986;28;20800;-77
2020/12/01 12:23:47;;;;;;;10.52;8.80;;;7.50;99.90;;;;;;5036715;28;20173;-78
2020/12/01 12:26:13;;;;;;;16.63;10.20;;;7.50;99.90;;;;;;5036257;28;20249;-77
2020/12/01 12:28:39;;;;;;;12.10;10.80;;;7.50;99.90;;;;;;5036505;28;20269;-78
2020/12/01 12:31:06;;;;;;;11.37;9.33;;;7.50;99.90;;;;;;5036515;28;20257;-78
2020/12/01 12:33:32;;;;;;;14.02;10.18;;;7.40;99.90;;;;;;5036401;28;20182;-77
2020/12/01 12:35:59;;;;;;;12.13;9.40;;;7.50;99.90;;;;;;5036014;28;20196;-77
2020/12/01 12:38:25;;;;;;;15.52;9.55;;;7.50;99.90;;;;;;5036165;28;20268;-78
2020/12/01 12:40:51;;;;;;;16.17;10.45;;;7.50;99.90;;;;;;5036287;28;20188;-77
2020/12/01 12:43:18;;;;;;;13.97;9.30;;;7.50;99.90;;;;;;5036212;28;20168;-78
2020/12/01 12:45:44;;;;;;;12.80;9.20;;;7.50;99.90;;;;;;5035931;28;20809;-77
2020/12/01 12:48:10;;;;;;;17.97;9.73;;;7.60;99.90;;;;;;5036048;28;20186;-78
2020/12/01 12:50:36;;;;;;;14.68;9.25;;;7.60;99.90;;;;;;5035932;28;20431;-77
2020/12/01 12:53:02;;;;;;;13.83;8.97;;;7.60;99.90;;;;;;5036095;28;20263;-77
2020/12/01 12:55:28;;;;;;;10.32;8.80;;;7.60;99.90;;;;;;5035649;28;20184;-77
2020/12/01 12:57:58;;;;;;;17.20;9.27;;;7.60;99.90;;;;;;5035850;28;20243;-78
2020/12/01 13:00:28;;;;;;;16.08;9.98;;;7.60;99.90;;;;;;5035676;28;20654;-79
2020/12/01 13:02:54;;;;;;;18.67;9.90;;;7.60;99.90;;;;;;5035975;28;20170;-77
2020/12/01 13:05:22;;;;;;;12.82;9.98;;;7.60;99.90;;;;;;5035445;28;20530;-77
2020/12/01 13:07:48;;;;;;;12.48;8.90;;;7.60;99.90;;;;;;5035723;28;20180;-77
2020/12/01 13:10:15;;;;;;;10.80;7.47;;;7.50;99.90;;;;;;5035993;28;20193;-77
2020/12/01 13:12:40;;;;;;;8.73;6.88;;;7.50;99.90;;;;;;5035747;28;20182;-78
2020/12/01 13:15:08;;;;;;;7.83;7.03;;;7.60;99.90;;;;;;5035400;28;20189;-78
2020/12/01 13:17:34;;;;;;;11.27;8.38;;;7.50;99.90;;;;;;5035692;28;20535;-78
2020/12/01 13:20:00;;;;;;;10.50;7.43;;;7.50;99.90;;;;;;5035420;28;20193;-77
2020/12/01 13:22:26;;;;;;;10.80;7.47;;;7.60;99.90;;;;;;5035579;28;20166;-78
2020/12/01 13:24:52;;;;;;;6.40;5.13;;;7.60;99.90;;;;;;5035121;28;20830;-78
2020/12/01 13:27:17;;;;;;;8.40;6.20;;;7.60;99.90;;;;;;5035748;28;20177;-78
2020/12/01 13:29:44;;;;;;;8.33;5.30;;;7.60;99.90;;;;;;5035357;28;20304;-77
2020/12/01 13:32:10;;;;;;;7.00;6.20;;;7.60;99.90;;;;;;5034974;28;20536;-78
2020/12/01 13:34:36;;;;;;;9.75;7.15;;;7.60;99.90;;;;;;5035060;28;20276;-77
2020/12/01 13:37:01;;;;;;;14.20;8.03;;;7.60;99.90;;;;;;5035277;28;20203;-77
2020/12/01 13:39:27;;;;;;;15.17;7.77;;;7.60;99.90;;;;;;5035390;28;20684;-77